sensor_id;sensor_type;location;lat;lon;timestamp;P1;durP1;ratioP1;P2;durP2;ratioP2
19127;SDS011;9696;53.686;10.094;2023-07-24T00:01:59;3.50;;;2.38;;
19127;SDS011;9696;53.686;10.094;2023-07-24T00:04:31;4.00;;;2.15;;
19127;SDS011;9696;53.686;10.094;2023-07-24T00:07:04;5.07;;;2.60;;
19127;SDS011;9696;53.686;10.094;2023-07-24T00:09:34;3.85;;;2.63;;
19127;SDS011;9696;53.686;10.094;2023-07-24T00:12:05;3.20;;;2.45;;
19127;SDS011;9696;53.686;10.094;2023-07-24T00:14:35;4.75;;;2.50;;
19127;SDS011;9696;53.686;10.094;2023-07-24T00:17:04;3.53;;;2.38;;
19127;SDS011;9696;53.686;10.094;2023-07-24T00:19:38;8.30;;;3.00;;
19127;SDS011;9696;53.686;10.094;2023-07-24T00:22:09;3.70;;;2.40;;
19127;SDS011;9696;53.686;10.094;2023-07-24T00:24:40;5.63;;;2.60;;
19127;SDS011;9696;53.686;10.094;2023-07-24T00:27:11;9.40;;;2.35;;
19127;SDS011;9696;53.686;10.094;2023-07-24T00:29:42;3.22;;;2.28;;
19127;SDS011;9696;53.686;10.094;2023-07-24T00:32:12;3.05;;;2.28;;
19127;SDS011;9696;53.686;10.094;2023-07-24T00:34:44;4.05;;;2.65;;
19127;SDS011;9696;53.686;10.094;2023-07-24T00:37:14;4.15;;;2.65;;
19127;SDS011;9696;53.686;10.094;2023-07-24T00:39:46;4.20;;;2.17;;
19127;SDS011;9696;53.686;10.094;2023-07-24T00:42:17;2.58;;;2.00;;
19127;SDS011;9696;53.686;10.094;2023-07-24T00:44:47;4.40;;;2.30;;
19127;SDS011;9696;53.686;10.094;2023-07-24T00:47:17;3.00;;;2.13;;
19127;SDS011;9696;53.686;10.094;2023-07-24T00:49:51;3.15;;;2.25;;
19127;SDS011;9696;53.686;10.094;2023-07-24T00:52:21;4.78;;;2.80;;
19127;SDS011;9696;53.686;10.094;2023-07-24T00:54:52;3.30;;;2.42;;
19127;SDS011;9696;53.686;10.094;2023-07-24T00:57:22;4.85;;;2.35;;
19127;SDS011;9696;53.686;10.094;2023-07-24T00:59:53;6.15;;;2.50;;
19127;SDS011;9696;53.686;10.094;2023-07-24T01:02:23;4.50;;;2.53;;
19127;SDS011;9696;53.686;10.094;2023-07-24T01:04:59;3.72;;;2.60;;
19127;SDS011;9696;53.686;10.094;2023-07-24T01:07:29;6.63;;;2.85;;
19127;SDS011;9696;53.686;10.094;2023-07-24T01:10:03;3.63;;;2.70;;
19127;SDS011;9696;53.686;10.094;2023-07-24T01:12:35;3.50;;;2.35;;
19127;SDS011;9696;53.686;10.094;2023-07-24T01:15:13;9.18;;;3.13;;
19127;SDS011;9696;53.686;10.094;2023-07-24T01:17:50;5.72;;;2.88;;
19127;SDS011;9696;53.686;10.094;2023-07-24T01:20:27;4.95;;;3.03;;
19127;SDS011;9696;53.686;10.094;2023-07-24T01:23:04;4.18;;;2.85;;
19127;SDS011;9696;53.686;10.094;2023-07-24T01:26:00;4.95;;;2.53;;
19127;SDS011;9696;53.686;10.094;2023-07-24T01:28:38;3.45;;;2.75;;
19127;SDS011;9696;53.686;10.094;2023-07-24T01:31:08;4.15;;;3.00;;
19127;SDS011;9696;53.686;10.094;2023-07-24T01:33:39;3.95;;;2.83;;
19127;SDS011;9696;53.686;10.094;2023-07-24T01:36:17;4.82;;;3.42;;
19127;SDS011;9696;53.686;10.094;2023-07-24T01:38:48;8.40;;;3.50;;
19127;SDS011;9696;53.686;10.094;2023-07-24T01:41:21;5.80;;;3.40;;
19127;SDS011;9696;53.686;10.094;2023-07-24T01:43:51;5.65;;;3.50;;
19127;SDS011;9696;53.686;10.094;2023-07-24T01:46:23;5.47;;;3.42;;
19127;SDS011;9696;53.686;10.094;2023-07-24T01:48:53;7.40;;;2.83;;
19127;SDS011;9696;53.686;10.094;2023-07-24T01:51:23;3.75;;;2.95;;
19127;SDS011;9696;53.686;10.094;2023-07-24T01:53:52;6.05;;;3.33;;
19127;SDS011;9696;53.686;10.094;2023-07-24T01:56:24;5.47;;;2.80;;
19127;SDS011;9696;53.686;10.094;2023-07-24T01:58:52;3.45;;;2.53;;
19127;SDS011;9696;53.686;10.094;2023-07-24T02:01:23;4.97;;;2.35;;
19127;SDS011;9696;53.686;10.094;2023-07-24T02:06:49;4.20;;;2.78;;
19127;SDS011;9696;53.686;10.094;2023-07-24T02:09:22;3.03;;;2.58;;
19127;SDS011;9696;53.686;10.094;2023-07-24T02:12:08;3.05;;;2.38;;
19127;SDS011;9696;53.686;10.094;2023-07-24T02:14:38;4.50;;;2.65;;
19127;SDS011;9696;53.686;10.094;2023-07-24T02:17:12;4.82;;;2.65;;
19127;SDS011;9696;53.686;10.094;2023-07-24T02:19:43;3.67;;;2.78;;
19127;SDS011;9696;53.686;10.094;2023-07-24T02:22:14;4.47;;;2.55;;
19127;SDS011;9696;53.686;10.094;2023-07-24T02:24:44;4.22;;;3.13;;
19127;SDS011;9696;53.686;10.094;2023-07-24T02:27:24;4.63;;;2.45;;
19127;SDS011;9696;53.686;10.094;2023-07-24T02:29:57;4.38;;;2.83;;
19127;SDS011;9696;53.686;10.094;2023-07-24T02:32:27;6.07;;;2.72;;
19127;SDS011;9696;53.686;10.094;2023-07-24T02:34:58;6.70;;;3.00;;
19127;SDS011;9696;53.686;10.094;2023-07-24T02:37:28;3.60;;;2.65;;
19127;SDS011;9696;53.686;10.094;2023-07-24T02:39:58;6.30;;;2.70;;
19127;SDS011;9696;53.686;10.094;2023-07-24T02:42:33;4.70;;;3.30;;
19127;SDS011;9696;53.686;10.094;2023-07-24T02:45:03;3.70;;;2.67;;
19127;SDS011;9696;53.686;10.094;2023-07-24T02:47:50;5.30;;;3.08;;
19127;SDS011;9696;53.686;10.094;2023-07-24T02:50:19;7.38;;;3.50;;
19127;SDS011;9696;53.686;10.094;2023-07-24T02:52:48;4.55;;;3.17;;
19127;SDS011;9696;53.686;10.094;2023-07-24T02:55:17;10.82;;;4.15;;
19127;SDS011;9696;53.686;10.094;2023-07-24T02:57:48;4.18;;;3.28;;
19127;SDS011;9696;53.686;10.094;2023-07-24T03:00:17;5.50;;;3.78;;
19127;SDS011;9696;53.686;10.094;2023-07-24T03:02:46;8.10;;;3.75;;
19127;SDS011;9696;53.686;10.094;2023-07-24T03:05:16;7.75;;;4.13;;
19127;SDS011;9696;53.686;10.094;2023-07-24T03:07:45;5.25;;;3.70;;
19127;SDS011;9696;53.686;10.094;2023-07-24T03:10:14;9.13;;;4.20;;
19127;SDS011;9696;53.686;10.094;2023-07-24T03:12:43;6.80;;;4.45;;
19127;SDS011;9696;53.686;10.094;2023-07-24T03:15:14;6.18;;;4.38;;
19127;SDS011;9696;53.686;10.094;2023-07-24T03:17:43;5.78;;;4.13;;
19127;SDS011;9696;53.686;10.094;2023-07-24T03:20:13;5.65;;;4.38;;
19127;SDS011;9696;53.686;10.094;2023-07-24T03:22:44;5.43;;;4.15;;
19127;SDS011;9696;53.686;10.094;2023-07-24T03:25:13;8.13;;;3.95;;
19127;SDS011;9696;53.686;10.094;2023-07-24T03:27:42;10.80;;;3.78;;
19127;SDS011;9696;53.686;10.094;2023-07-24T03:30:11;6.05;;;4.25;;
19127;SDS011;9696;53.686;10.094;2023-07-24T03:32:42;7.15;;;4.20;;
19127;SDS011;9696;53.686;10.094;2023-07-24T03:35:11;5.95;;;3.78;;
19127;SDS011;9696;53.686;10.094;2023-07-24T03:37:40;8.00;;;4.90;;
19127;SDS011;9696;53.686;10.094;2023-07-24T03:40:10;7.03;;;4.43;;
19127;SDS011;9696;53.686;10.094;2023-07-24T03:42:40;7.75;;;4.45;;
19127;SDS011;9696;53.686;10.094;2023-07-24T03:45:09;9.45;;;4.65;;
19127;SDS011;9696;53.686;10.094;2023-07-24T03:47:40;6.78;;;4.68;;
19127;SDS011;9696;53.686;10.094;2023-07-24T03:50:09;6.32;;;5.13;;
19127;SDS011;9696;53.686;10.094;2023-07-24T03:52:39;6.68;;;4.68;;
19127;SDS011;9696;53.686;10.094;2023-07-24T03:55:08;7.13;;;4.00;;
19127;SDS011;9696;53.686;10.094;2023-07-24T03:57:37;6.30;;;4.03;;
19127;SDS011;9696;53.686;10.094;2023-07-24T04:00:07;6.25;;;3.80;;
19127;SDS011;9696;53.686;10.094;2023-07-24T04:02:41;6.22;;;3.80;;
19127;SDS011;9696;53.686;10.094;2023-07-24T04:05:10;6.97;;;3.75;;
19127;SDS011;9696;53.686;10.094;2023-07-24T04:07:39;5.95;;;4.10;;
19127;SDS011;9696;53.686;10.094;2023-07-24T04:10:08;5.18;;;3.42;;
19127;SDS011;9696;53.686;10.094;2023-07-24T04:12:38;7.43;;;3.70;;
19127;SDS011;9696;53.686;10.094;2023-07-24T04:15:07;8.80;;;3.78;;
19127;SDS011;9696;53.686;10.094;2023-07-24T04:17:37;4.78;;;3.42;;
19127;SDS011;9696;53.686;10.094;2023-07-24T04:20:10;8.02;;;3.50;;
19127;SDS011;9696;53.686;10.094;2023-07-24T04:22:39;5.13;;;3.33;;
19127;SDS011;9696;53.686;10.094;2023-07-24T04:25:08;6.03;;;3.85;;
19127;SDS011;9696;53.686;10.094;2023-07-24T04:27:37;4.25;;;3.25;;
19127;SDS011;9696;53.686;10.094;2023-07-24T04:30:07;6.00;;;3.63;;
19127;SDS011;9696;53.686;10.094;2023-07-24T04:32:37;6.05;;;3.03;;
19127;SDS011;9696;53.686;10.094;2023-07-24T04:35:06;4.95;;;3.00;;
19127;SDS011;9696;53.686;10.094;2023-07-24T04:37:37;4.90;;;2.95;;
19127;SDS011;9696;53.686;10.094;2023-07-24T04:40:07;5.18;;;3.38;;
19127;SDS011;9696;53.686;10.094;2023-07-24T04:42:37;6.38;;;3.45;;
19127;SDS011;9696;53.686;10.094;2023-07-24T04:45:06;5.35;;;3.20;;
19127;SDS011;9696;53.686;10.094;2023-07-24T04:47:36;4.40;;;3.25;;
19127;SDS011;9696;53.686;10.094;2023-07-24T04:50:06;6.03;;;3.35;;
19127;SDS011;9696;53.686;10.094;2023-07-24T04:52:35;4.25;;;3.05;;
19127;SDS011;9696;53.686;10.094;2023-07-24T04:55:06;5.32;;;3.10;;
19127;SDS011;9696;53.686;10.094;2023-07-24T04:57:35;3.40;;;2.97;;
19127;SDS011;9696;53.686;10.094;2023-07-24T05:00:05;8.63;;;3.00;;
19127;SDS011;9696;53.686;10.094;2023-07-24T05:02:35;7.22;;;3.20;;
19127;SDS011;9696;53.686;10.094;2023-07-24T05:05:05;4.57;;;3.25;;
19127;SDS011;9696;53.686;10.094;2023-07-24T05:07:38;4.93;;;3.13;;
19127;SDS011;9696;53.686;10.094;2023-07-24T05:10:09;9.23;;;3.40;;
19127;SDS011;9696;53.686;10.094;2023-07-24T05:12:41;5.65;;;3.55;;
19127;SDS011;9696;53.686;10.094;2023-07-24T05:15:11;4.38;;;3.08;;
19127;SDS011;9696;53.686;10.094;2023-07-24T05:17:44;5.55;;;2.95;;
19127;SDS011;9696;53.686;10.094;2023-07-24T05:20:13;10.48;;;3.28;;
19127;SDS011;9696;53.686;10.094;2023-07-24T05:22:44;5.90;;;3.42;;
19127;SDS011;9696;53.686;10.094;2023-07-24T05:25:13;4.07;;;3.05;;
19127;SDS011;9696;53.686;10.094;2023-07-24T05:27:42;6.43;;;3.00;;
19127;SDS011;9696;53.686;10.094;2023-07-24T05:30:12;4.93;;;3.58;;
19127;SDS011;9696;53.686;10.094;2023-07-24T05:32:42;4.28;;;2.80;;
19127;SDS011;9696;53.686;10.094;2023-07-24T05:35:11;5.22;;;3.10;;
19127;SDS011;9696;53.686;10.094;2023-07-24T05:37:41;6.78;;;2.97;;
19127;SDS011;9696;53.686;10.094;2023-07-24T05:40:11;4.32;;;3.20;;
19127;SDS011;9696;53.686;10.094;2023-07-24T05:42:40;6.63;;;3.50;;
19127;SDS011;9696;53.686;10.094;2023-07-24T05:45:10;9.52;;;3.25;;
19127;SDS011;9696;53.686;10.094;2023-07-24T05:47:41;5.70;;;2.83;;
19127;SDS011;9696;53.686;10.094;2023-07-24T05:50:10;6.80;;;3.13;;
19127;SDS011;9696;53.686;10.094;2023-07-24T05:52:41;3.88;;;2.97;;
19127;SDS011;9696;53.686;10.094;2023-07-24T05:55:12;6.53;;;2.65;;
19127;SDS011;9696;53.686;10.094;2023-07-24T05:57:41;5.30;;;3.17;;
19127;SDS011;9696;53.686;10.094;2023-07-24T06:00:10;3.92;;;3.08;;
19127;SDS011;9696;53.686;10.094;2023-07-24T06:02:42;7.18;;;3.70;;
19127;SDS011;9696;53.686;10.094;2023-07-24T06:05:12;4.97;;;3.28;;
19127;SDS011;9696;53.686;10.094;2023-07-24T06:07:41;5.20;;;3.17;;
19127;SDS011;9696;53.686;10.094;2023-07-24T06:10:11;4.53;;;2.95;;
19127;SDS011;9696;53.686;10.094;2023-07-24T06:12:41;4.95;;;3.30;;
19127;SDS011;9696;53.686;10.094;2023-07-24T06:15:10;10.32;;;3.53;;
19127;SDS011;9696;53.686;10.094;2023-07-24T06:17:39;5.15;;;3.35;;
19127;SDS011;9696;53.686;10.094;2023-07-24T06:20:08;5.72;;;3.38;;
19127;SDS011;9696;53.686;10.094;2023-07-24T06:22:38;6.35;;;3.10;;
19127;SDS011;9696;53.686;10.094;2023-07-24T06:25:07;4.75;;;2.67;;
19127;SDS011;9696;53.686;10.094;2023-07-24T06:27:38;4.20;;;2.67;;
19127;SDS011;9696;53.686;10.094;2023-07-24T06:30:07;3.67;;;2.85;;
19127;SDS011;9696;53.686;10.094;2023-07-24T06:32:42;3.63;;;2.80;;
19127;SDS011;9696;53.686;10.094;2023-07-24T06:35:11;4.05;;;2.75;;
19127;SDS011;9696;53.686;10.094;2023-07-24T06:37:41;5.07;;;3.00;;
19127;SDS011;9696;53.686;10.094;2023-07-24T06:40:10;3.67;;;2.53;;
19127;SDS011;9696;53.686;10.094;2023-07-24T06:42:41;4.65;;;3.20;;
19127;SDS011;9696;53.686;10.094;2023-07-24T06:45:10;4.22;;;3.03;;
19127;SDS011;9696;53.686;10.094;2023-07-24T06:47:39;4.10;;;2.60;;
19127;SDS011;9696;53.686;10.094;2023-07-24T06:50:09;5.13;;;3.10;;
19127;SDS011;9696;53.686;10.094;2023-07-24T06:52:38;4.07;;;3.13;;
19127;SDS011;9696;53.686;10.094;2023-07-24T06:55:07;3.63;;;2.60;;
19127;SDS011;9696;53.686;10.094;2023-07-24T06:57:36;5.80;;;3.05;;
19127;SDS011;9696;53.686;10.094;2023-07-24T07:00:08;4.50;;;3.25;;
19127;SDS011;9696;53.686;10.094;2023-07-24T07:02:38;3.72;;;3.00;;
19127;SDS011;9696;53.686;10.094;2023-07-24T07:05:08;3.60;;;2.75;;
19127;SDS011;9696;53.686;10.094;2023-07-24T07:07:37;4.05;;;2.58;;
19127;SDS011;9696;53.686;10.094;2023-07-24T07:10:07;3.30;;;2.70;;
19127;SDS011;9696;53.686;10.094;2023-07-24T07:12:37;3.20;;;2.58;;
19127;SDS011;9696;53.686;10.094;2023-07-24T07:15:08;3.50;;;2.75;;
19127;SDS011;9696;53.686;10.094;2023-07-24T07:17:37;5.25;;;3.40;;
19127;SDS011;9696;53.686;10.094;2023-07-24T07:20:07;3.22;;;2.78;;
19127;SDS011;9696;53.686;10.094;2023-07-24T07:22:36;4.20;;;3.05;;
19127;SDS011;9696;53.686;10.094;2023-07-24T07:25:05;4.60;;;2.90;;
19127;SDS011;9696;53.686;10.094;2023-07-24T07:27:35;4.32;;;2.88;;
19127;SDS011;9696;53.686;10.094;2023-07-24T07:30:04;4.03;;;3.00;;
19127;SDS011;9696;53.686;10.094;2023-07-24T07:32:36;4.10;;;2.90;;
19127;SDS011;9696;53.686;10.094;2023-07-24T07:35:05;3.70;;;3.00;;
19127;SDS011;9696;53.686;10.094;2023-07-24T07:37:35;4.35;;;3.53;;
19127;SDS011;9696;53.686;10.094;2023-07-24T07:40:05;4.88;;;3.10;;
19127;SDS011;9696;53.686;10.094;2023-07-24T07:42:35;4.78;;;2.97;;
19127;SDS011;9696;53.686;10.094;2023-07-24T07:45:08;4.57;;;3.00;;
19127;SDS011;9696;53.686;10.094;2023-07-24T07:47:37;3.78;;;2.72;;
19127;SDS011;9696;53.686;10.094;2023-07-24T07:50:07;3.88;;;3.05;;
19127;SDS011;9696;53.686;10.094;2023-07-24T07:52:36;5.15;;;3.60;;
19127;SDS011;9696;53.686;10.094;2023-07-24T07:55:06;3.95;;;3.00;;
19127;SDS011;9696;53.686;10.094;2023-07-24T07:57:36;6.38;;;2.70;;
19127;SDS011;9696;53.686;10.094;2023-07-24T08:00:08;4.47;;;3.10;;
19127;SDS011;9696;53.686;10.094;2023-07-24T08:02:38;4.72;;;3.13;;
19127;SDS011;9696;53.686;10.094;2023-07-24T08:05:09;6.45;;;3.30;;
19127;SDS011;9696;53.686;10.094;2023-07-24T08:07:46;3.33;;;2.88;;
19127;SDS011;9696;53.686;10.094;2023-07-24T08:10:15;4.47;;;3.00;;
19127;SDS011;9696;53.686;10.094;2023-07-24T08:12:45;4.40;;;3.30;;
19127;SDS011;9696;53.686;10.094;2023-07-24T08:15:15;5.55;;;3.17;;
19127;SDS011;9696;53.686;10.094;2023-07-24T08:17:44;9.93;;;4.03;;
19127;SDS011;9696;53.686;10.094;2023-07-24T08:20:14;5.10;;;3.35;;
19127;SDS011;9696;53.686;10.094;2023-07-24T08:22:43;3.72;;;2.97;;
19127;SDS011;9696;53.686;10.094;2023-07-24T08:25:13;4.55;;;2.88;;
19127;SDS011;9696;53.686;10.094;2023-07-24T08:27:42;5.75;;;3.42;;
19127;SDS011;9696;53.686;10.094;2023-07-24T08:30:32;5.18;;;3.08;;
19127;SDS011;9696;53.686;10.094;2023-07-24T08:33:02;4.25;;;3.03;;
19127;SDS011;9696;53.686;10.094;2023-07-24T08:35:31;4.43;;;3.17;;
19127;SDS011;9696;53.686;10.094;2023-07-24T08:38:00;4.05;;;3.15;;
19127;SDS011;9696;53.686;10.094;2023-07-24T08:40:29;4.13;;;3.25;;
19127;SDS011;9696;53.686;10.094;2023-07-24T08:42:58;5.07;;;3.30;;
19127;SDS011;9696;53.686;10.094;2023-07-24T08:45:28;4.43;;;3.00;;
19127;SDS011;9696;53.686;10.094;2023-07-24T08:48:00;5.20;;;2.85;;
19127;SDS011;9696;53.686;10.094;2023-07-24T08:50:29;4.15;;;3.00;;
19127;SDS011;9696;53.686;10.094;2023-07-24T08:52:59;5.40;;;3.50;;
19127;SDS011;9696;53.686;10.094;2023-07-24T08:55:29;6.40;;;3.50;;
19127;SDS011;9696;53.686;10.094;2023-07-24T08:57:58;5.63;;;3.30;;
19127;SDS011;9696;53.686;10.094;2023-07-24T09:00:27;5.32;;;3.20;;
19127;SDS011;9696;53.686;10.094;2023-07-24T09:02:57;4.22;;;3.13;;
19127;SDS011;9696;53.686;10.094;2023-07-24T09:05:28;5.20;;;3.60;;
19127;SDS011;9696;53.686;10.094;2023-07-24T09:07:57;5.30;;;3.53;;
19127;SDS011;9696;53.686;10.094;2023-07-24T09:10:26;3.40;;;3.00;;
19127;SDS011;9696;53.686;10.094;2023-07-24T09:12:55;4.53;;;3.00;;
19127;SDS011;9696;53.686;10.094;2023-07-24T09:15:25;6.53;;;3.65;;
19127;SDS011;9696;53.686;10.094;2023-07-24T09:17:54;6.03;;;3.13;;
19127;SDS011;9696;53.686;10.094;2023-07-24T09:20:24;4.65;;;2.97;;
19127;SDS011;9696;53.686;10.094;2023-07-24T09:22:56;4.43;;;3.08;;
19127;SDS011;9696;53.686;10.094;2023-07-24T09:25:32;4.28;;;2.80;;
19127;SDS011;9696;53.686;10.094;2023-07-24T09:28:08;3.70;;;2.85;;
19127;SDS011;9696;53.686;10.094;2023-07-24T09:30:38;4.63;;;2.88;;
19127;SDS011;9696;53.686;10.094;2023-07-24T09:33:08;5.25;;;2.70;;
19127;SDS011;9696;53.686;10.094;2023-07-24T09:35:38;4.13;;;2.97;;
19127;SDS011;9696;53.686;10.094;2023-07-24T09:38:08;3.83;;;2.35;;
19127;SDS011;9696;53.686;10.094;2023-07-24T09:40:39;3.40;;;2.47;;
19127;SDS011;9696;53.686;10.094;2023-07-24T09:43:14;3.13;;;2.38;;
19127;SDS011;9696;53.686;10.094;2023-07-24T09:46:03;6.07;;;2.92;;
19127;SDS011;9696;53.686;10.094;2023-07-24T09:48:34;6.10;;;2.75;;
19127;SDS011;9696;53.686;10.094;2023-07-24T09:51:09;2.95;;;2.45;;
19127;SDS011;9696;53.686;10.094;2023-07-24T09:53:43;4.18;;;2.42;;
19127;SDS011;9696;53.686;10.094;2023-07-24T09:56:15;5.35;;;2.50;;
19127;SDS011;9696;53.686;10.094;2023-07-24T09:58:57;4.00;;;2.58;;
19127;SDS011;9696;53.686;10.094;2023-07-24T10:01:29;7.93;;;2.65;;
19127;SDS011;9696;53.686;10.094;2023-07-24T10:04:01;4.32;;;2.83;;
19127;SDS011;9696;53.686;10.094;2023-07-24T10:06:33;4.65;;;2.42;;
19127;SDS011;9696;53.686;10.094;2023-07-24T10:09:03;4.68;;;2.13;;
19127;SDS011;9696;53.686;10.094;2023-07-24T10:11:33;6.03;;;2.63;;
19127;SDS011;9696;53.686;10.094;2023-07-24T10:14:02;2.90;;;2.30;;
19127;SDS011;9696;53.686;10.094;2023-07-24T10:16:32;2.85;;;2.13;;
19127;SDS011;9696;53.686;10.094;2023-07-24T10:19:12;5.63;;;2.47;;
19127;SDS011;9696;53.686;10.094;2023-07-24T10:21:47;4.80;;;2.30;;
19127;SDS011;9696;53.686;10.094;2023-07-24T10:24:17;2.92;;;2.30;;
19127;SDS011;9696;53.686;10.094;2023-07-24T10:27:07;3.38;;;2.33;;
19127;SDS011;9696;53.686;10.094;2023-07-24T10:29:36;5.07;;;2.40;;
19127;SDS011;9696;53.686;10.094;2023-07-24T10:32:16;3.75;;;2.05;;
19127;SDS011;9696;53.686;10.094;2023-07-24T10:34:55;3.10;;;2.38;;
19127;SDS011;9696;53.686;10.094;2023-07-24T10:37:34;3.65;;;2.50;;
19127;SDS011;9696;53.686;10.094;2023-07-24T10:40:04;4.80;;;2.38;;
19127;SDS011;9696;53.686;10.094;2023-07-24T10:42:34;3.35;;;2.20;;
19127;SDS011;9696;53.686;10.094;2023-07-24T10:45:04;3.80;;;2.38;;
19127;SDS011;9696;53.686;10.094;2023-07-24T10:47:34;4.25;;;2.45;;
19127;SDS011;9696;53.686;10.094;2023-07-24T10:50:04;4.20;;;2.50;;
19127;SDS011;9696;53.686;10.094;2023-07-24T10:52:35;3.30;;;2.17;;
19127;SDS011;9696;53.686;10.094;2023-07-24T10:55:05;6.63;;;2.60;;
19127;SDS011;9696;53.686;10.094;2023-07-24T10:57:34;5.30;;;2.30;;
19127;SDS011;9696;53.686;10.094;2023-07-24T11:00:04;2.33;;;2.03;;
19127;SDS011;9696;53.686;10.094;2023-07-24T11:02:34;5.05;;;2.80;;
19127;SDS011;9696;53.686;10.094;2023-07-24T11:05:04;9.10;;;2.85;;
19127;SDS011;9696;53.686;10.094;2023-07-24T11:07:36;4.25;;;2.63;;
19127;SDS011;9696;53.686;10.094;2023-07-24T11:10:14;4.30;;;2.55;;
19127;SDS011;9696;53.686;10.094;2023-07-24T11:12:47;3.33;;;2.25;;
19127;SDS011;9696;53.686;10.094;2023-07-24T11:15:23;3.47;;;2.42;;
19127;SDS011;9696;53.686;10.094;2023-07-24T11:17:53;5.43;;;2.67;;
19127;SDS011;9696;53.686;10.094;2023-07-24T11:20:23;3.38;;;2.45;;
19127;SDS011;9696;53.686;10.094;2023-07-24T11:22:53;5.85;;;2.30;;
19127;SDS011;9696;53.686;10.094;2023-07-24T11:25:26;4.10;;;2.60;;
19127;SDS011;9696;53.686;10.094;2023-07-24T11:27:56;3.75;;;2.28;;
19127;SDS011;9696;53.686;10.094;2023-07-24T11:30:25;3.00;;;2.45;;
19127;SDS011;9696;53.686;10.094;2023-07-24T11:32:55;3.70;;;2.30;;
19127;SDS011;9696;53.686;10.094;2023-07-24T11:35:27;2.65;;;2.00;;
19127;SDS011;9696;53.686;10.094;2023-07-24T11:37:58;4.47;;;2.20;;
19127;SDS011;9696;53.686;10.094;2023-07-24T11:40:31;3.38;;;2.30;;
19127;SDS011;9696;53.686;10.094;2023-07-24T11:43:02;2.90;;;1.95;;
19127;SDS011;9696;53.686;10.094;2023-07-24T11:45:39;3.78;;;2.28;;
19127;SDS011;9696;53.686;10.094;2023-07-24T11:48:11;3.33;;;2.40;;
19127;SDS011;9696;53.686;10.094;2023-07-24T11:50:41;8.27;;;2.25;;
19127;SDS011;9696;53.686;10.094;2023-07-24T11:53:22;3.60;;;2.25;;
19127;SDS011;9696;53.686;10.094;2023-07-24T11:55:53;5.40;;;2.30;;
19127;SDS011;9696;53.686;10.094;2023-07-24T11:58:25;2.95;;;2.03;;
19127;SDS011;9696;53.686;10.094;2023-07-24T12:00:55;3.25;;;2.28;;
19127;SDS011;9696;53.686;10.094;2023-07-24T12:03:25;3.25;;;2.20;;
19127;SDS011;9696;53.686;10.094;2023-07-24T12:05:56;6.72;;;2.13;;
19127;SDS011;9696;53.686;10.094;2023-07-24T12:08:31;3.00;;;2.00;;
19127;SDS011;9696;53.686;10.094;2023-07-24T12:11:01;2.75;;;2.15;;
19127;SDS011;9696;53.686;10.094;2023-07-24T12:13:31;5.95;;;2.13;;
19127;SDS011;9696;53.686;10.094;2023-07-24T12:16:00;4.85;;;2.40;;
19127;SDS011;9696;53.686;10.094;2023-07-24T12:18:29;6.13;;;2.05;;
19127;SDS011;9696;53.686;10.094;2023-07-24T12:20:58;5.53;;;2.60;;
19127;SDS011;9696;53.686;10.094;2023-07-24T12:23:28;2.03;;;1.80;;
19127;SDS011;9696;53.686;10.094;2023-07-24T12:25:58;6.38;;;2.30;;
19127;SDS011;9696;53.686;10.094;2023-07-24T12:28:27;3.40;;;2.13;;
19127;SDS011;9696;53.686;10.094;2023-07-24T12:30:56;6.22;;;2.30;;
19127;SDS011;9696;53.686;10.094;2023-07-24T12:33:26;4.40;;;2.00;;
19127;SDS011;9696;53.686;10.094;2023-07-24T12:35:55;5.43;;;1.83;;
19127;SDS011;9696;53.686;10.094;2023-07-24T12:38:24;2.67;;;1.88;;
19127;SDS011;9696;53.686;10.094;2023-07-24T12:40:54;4.13;;;2.10;;
19127;SDS011;9696;53.686;10.094;2023-07-24T12:43:23;4.85;;;1.80;;
19127;SDS011;9696;53.686;10.094;2023-07-24T12:45:52;3.15;;;1.85;;
19127;SDS011;9696;53.686;10.094;2023-07-24T12:48:22;3.47;;;2.08;;
19127;SDS011;9696;53.686;10.094;2023-07-24T12:50:51;4.93;;;1.88;;
19127;SDS011;9696;53.686;10.094;2023-07-24T12:53:21;5.50;;;1.92;;
19127;SDS011;9696;53.686;10.094;2023-07-24T12:56:06;2.63;;;1.80;;
19127;SDS011;9696;53.686;10.094;2023-07-24T12:58:35;2.78;;;2.05;;
19127;SDS011;9696;53.686;10.094;2023-07-24T13:01:05;2.22;;;1.80;;
19127;SDS011;9696;53.686;10.094;2023-07-24T13:03:35;2.05;;;1.65;;
19127;SDS011;9696;53.686;10.094;2023-07-24T13:06:04;1.80;;;1.60;;
19127;SDS011;9696;53.686;10.094;2023-07-24T13:08:33;3.67;;;2.13;;
19127;SDS011;9696;53.686;10.094;2023-07-24T13:11:02;3.60;;;1.67;;
19127;SDS011;9696;53.686;10.094;2023-07-24T13:13:33;2.08;;;1.80;;
19127;SDS011;9696;53.686;10.094;2023-07-24T13:16:03;2.67;;;1.73;;
19127;SDS011;9696;53.686;10.094;2023-07-24T13:18:32;3.20;;;1.92;;
19127;SDS011;9696;53.686;10.094;2023-07-24T13:21:01;3.88;;;1.77;;
19127;SDS011;9696;53.686;10.094;2023-07-24T13:23:33;2.22;;;1.88;;
19127;SDS011;9696;53.686;10.094;2023-07-24T13:26:02;3.83;;;1.50;;
19127;SDS011;9696;53.686;10.094;2023-07-24T13:28:31;4.32;;;1.80;;
19127;SDS011;9696;53.686;10.094;2023-07-24T13:31:10;2.97;;;1.95;;
19127;SDS011;9696;53.686;10.094;2023-07-24T13:33:41;2.55;;;1.85;;
19127;SDS011;9696;53.686;10.094;2023-07-24T13:36:10;2.53;;;1.80;;
19127;SDS011;9696;53.686;10.094;2023-07-24T13:38:40;6.18;;;1.80;;
19127;SDS011;9696;53.686;10.094;2023-07-24T13:41:09;2.88;;;1.95;;
19127;SDS011;9696;53.686;10.094;2023-07-24T13:43:39;2.42;;;1.70;;
19127;SDS011;9696;53.686;10.094;2023-07-24T13:46:09;5.38;;;1.88;;
19127;SDS011;9696;53.686;10.094;2023-07-24T13:48:38;3.17;;;1.85;;
19127;SDS011;9696;53.686;10.094;2023-07-24T13:51:07;4.30;;;2.08;;
19127;SDS011;9696;53.686;10.094;2023-07-24T13:53:36;2.70;;;1.88;;
19127;SDS011;9696;53.686;10.094;2023-07-24T13:56:05;4.07;;;1.83;;
19127;SDS011;9696;53.686;10.094;2023-07-24T13:58:34;4.20;;;1.75;;
19127;SDS011;9696;53.686;10.094;2023-07-24T14:01:05;5.68;;;2.30;;
19127;SDS011;9696;53.686;10.094;2023-07-24T14:03:34;2.90;;;1.83;;
19127;SDS011;9696;53.686;10.094;2023-07-24T14:06:03;3.40;;;2.10;;
19127;SDS011;9696;53.686;10.094;2023-07-24T14:08:32;3.15;;;1.88;;
19127;SDS011;9696;53.686;10.094;2023-07-24T14:11:02;5.47;;;1.88;;
19127;SDS011;9696;53.686;10.094;2023-07-24T14:13:31;7.80;;;2.20;;
19127;SDS011;9696;53.686;10.094;2023-07-24T14:16:00;2.30;;;2.00;;
19127;SDS011;9696;53.686;10.094;2023-07-24T14:18:30;5.05;;;1.90;;
19127;SDS011;9696;53.686;10.094;2023-07-24T14:21:00;2.17;;;1.90;;
19127;SDS011;9696;53.686;10.094;2023-07-24T14:23:30;1.98;;;1.63;;
19127;SDS011;9696;53.686;10.094;2023-07-24T14:25:59;3.33;;;1.92;;
19127;SDS011;9696;53.686;10.094;2023-07-24T14:28:28;2.42;;;1.77;;
19127;SDS011;9696;53.686;10.094;2023-07-24T14:30:57;5.95;;;2.17;;
19127;SDS011;9696;53.686;10.094;2023-07-24T14:33:26;4.65;;;2.00;;
19127;SDS011;9696;53.686;10.094;2023-07-24T14:35:57;2.65;;;1.50;;
19127;SDS011;9696;53.686;10.094;2023-07-24T14:38:26;3.65;;;1.98;;
19127;SDS011;9696;53.686;10.094;2023-07-24T14:40:55;4.60;;;1.88;;
19127;SDS011;9696;53.686;10.094;2023-07-24T14:43:24;3.42;;;1.95;;
19127;SDS011;9696;53.686;10.094;2023-07-24T14:45:53;3.63;;;2.30;;
19127;SDS011;9696;53.686;10.094;2023-07-24T14:48:22;2.83;;;1.92;;
19127;SDS011;9696;53.686;10.094;2023-07-24T14:50:51;3.10;;;1.65;;
19127;SDS011;9696;53.686;10.094;2023-07-24T14:53:22;3.05;;;2.05;;
19127;SDS011;9696;53.686;10.094;2023-07-24T14:55:51;2.95;;;1.83;;
19127;SDS011;9696;53.686;10.094;2023-07-24T14:58:20;2.53;;;1.80;;
19127;SDS011;9696;53.686;10.094;2023-07-24T15:00:49;2.30;;;1.98;;
19127;SDS011;9696;53.686;10.094;2023-07-24T15:03:19;6.18;;;2.25;;
19127;SDS011;9696;53.686;10.094;2023-07-24T15:05:48;5.07;;;2.30;;
19127;SDS011;9696;53.686;10.094;2023-07-24T15:08:18;3.42;;;2.05;;
19127;SDS011;9696;53.686;10.094;2023-07-24T15:10:49;4.60;;;2.63;;
19127;SDS011;9696;53.686;10.094;2023-07-24T15:13:18;8.27;;;2.92;;